Time;durP1;ratioP1;P1;durP2;ratioP2;P2;SDS_P1;SDS_P2;PMS_P1;PMS_P2;Temp;Humidity;BMP_temperature;BMP_pressure;BME280_temperature;BME280_humidity;BME280_pressure;Samples;Min_cycle;Max_cycle;Signal;HPM_P1;HPM_P2
2021/04/20 00:00:41;;;;;;;20.42;9.48;;;11.80;66.70;;;;;;5033367;28;20388;-61
2021/04/20 00:03:07;;;;;;;14.85;9.70;;;11.80;66.00;;;;;;5050583;28;20029;-61
2021/04/20 00:05:32;;;;;;;19.95;9.70;;;11.80;65.90;;;;;;5054398;28;20528;-61
2021/04/20 00:07:58;;;;;;;13.48;8.95;;;11.80;65.90;;;;;;5053072;28;20511;-60
2021/04/20 00:10:24;;;;;;;17.92;10.07;;;11.80;66.00;;;;;;5049240;28;20033;-61
2021/04/20 00:12:50;;;;;;;15.05;9.65;;;11.80;66.10;;;;;;5049677;28;20033;-61
2021/04/20 00:15:24;;;;;;;17.70;9.60;;;11.80;66.30;;;;;;5047186;28;20039;-61
2021/04/20 00:17:54;;;;;;;13.27;9.32;;;11.80;66.30;;;;;;5037009;28;20288;-61
2021/04/20 00:20:20;;;;;;;15.00;9.13;;;11.70;66.30;;;;;;5017063;28;20495;-61
2021/04/20 00:22:45;;;;;;;16.25;9.45;;;11.70;66.30;;;;;;5044827;28;20066;-61
2021/04/20 00:25:11;;;;;;;14.52;8.70;;;11.70;66.40;;;;;;5010634;28;20117;-61
2021/04/20 00:27:37;;;;;;;16.33;8.65;;;11.70;66.50;;;;;;5040248;28;20501;-60
2021/04/20 00:30:06;;;;;;;12.68;8.43;;;11.70;66.60;;;;;;5035604;28;20020;-61
2021/04/20 00:32:32;;;;;;;16.25;10.13;;;11.60;66.60;;;;;;5011718;28;20039;-61
2021/04/20 00:34:57;;;;;;;14.55;10.02;;;11.60;66.50;;;;;;5050213;28;20473;-61
2021/04/20 00:37:23;;;;;;;19.02;10.48;;;11.60;66.70;;;;;;5012021;28;20020;-60
2021/04/20 00:39:48;;;;;;;15.13;9.63;;;11.50;66.70;;;;;;5052108;28;20033;-60
2021/04/20 00:42:14;;;;;;;14.63;10.25;;;11.50;66.70;;;;;;5036321;28;20048;-60
2021/04/20 00:44:39;;;;;;;12.77;9.05;;;11.50;66.70;;;;;;5051929;28;20025;-61
2021/04/20 00:47:05;;;;;;;14.38;9.38;;;11.50;66.70;;;;;;5060563;28;20885;-61
2021/04/20 00:49:30;;;;;;;16.52;8.93;;;11.50;66.90;;;;;;5068324;28;20029;-60
2021/04/20 00:51:56;;;;;;;23.25;9.93;;;11.50;66.80;;;;;;5068123;28;20073;-60
2021/04/20 00:54:22;;;;;;;18.30;9.10;;;11.40;66.80;;;;;;5076780;28;20028;-61
2021/04/20 00:56:47;;;;;;;17.40;9.82;;;11.40;66.70;;;;;;5074317;28;20115;-61
2021/04/20 00:59:13;;;;;;;11.93;8.93;;;11.40;66.70;;;;;;5074336;28;20315;-60
2021/04/20 01:01:39;;;;;;;19.00;9.10;;;11.40;67.00;;;;;;5054639;28;20060;-61
2021/04/20 01:04:08;;;;;;;18.75;9.68;;;11.40;66.90;;;;;;5059372;28;20110;-61
2021/04/20 01:06:33;;;;;;;16.13;9.63;;;11.40;67.00;;;;;;5068483;28;20035;-61
2021/04/20 01:08:59;;;;;;;12.15;8.68;;;11.40;66.90;;;;;;5053048;28;20387;-60
2021/04/20 01:11:24;;;;;;;18.13;8.85;;;11.40;67.20;;;;;;5064864;28;20032;-60
2021/04/20 01:13:50;;;;;;;16.85;9.98;;;11.30;67.00;;;;;;5054726;28;20056;-60
2021/04/20 01:16:19;;;;;;;19.55;9.88;;;11.30;67.00;;;;;;5048946;28;20047;-61
2021/04/20 01:18:44;;;;;;;13.73;9.02;;;11.30;67.00;;;;;;5055310;28;20048;-61
2021/04/20 01:21:11;;;;;;;12.75;8.95;;;11.30;67.30;;;;;;5067646;28;20063;-60
2021/04/20 01:24:01;;;;;;;12.60;8.68;;;11.30;67.20;;;;;;5079129;28;20012;-61
2021/04/20 01:26:28;;;;;;;11.98;8.57;;;11.20;67.10;;;;;;5071994;28;20044;-60
2021/04/20 01:28:55;;;;;;;13.48;8.98;;;11.20;67.30;;;;;;5060625;28;20328;-61
2021/04/20 01:31:21;;;;;;;14.95;9.13;;;11.20;67.60;;;;;;5076616;28;20071;-61
2021/04/20 01:33:46;;;;;;;12.85;8.32;;;11.20;67.30;;;;;;5058583;28;20153;-61
2021/04/20 01:36:14;;;;;;;18.55;9.32;;;11.20;67.30;;;;;;5052576;28;20021;-61
2021/04/20 01:38:43;;;;;;;18.27;8.77;;;11.20;67.40;;;;;;5059597;28;20016;-61
2021/04/20 01:41:09;;;;;;;12.25;8.48;;;11.20;67.40;;;;;;5043397;28;20033;-60
2021/04/20 01:43:35;;;;;;;13.35;8.88;;;11.10;67.50;;;;;;5062219;28;20373;-61
2021/04/20 01:46:00;;;;;;;12.63;8.57;;;11.10;67.60;;;;;;5066411;28;20456;-61
2021/04/20 01:48:26;;;;;;;9.25;8.07;;;11.10;67.50;;;;;;5067622;28;20036;-60
2021/04/20 01:50:51;;;;;;;11.02;8.48;;;11.10;67.60;;;;;;5058047;28;20447;-60
2021/04/20 01:53:17;;;;;;;13.77;9.38;;;11.00;67.40;;;;;;5054160;28;20500;-60
2021/04/20 01:55:42;;;;;;;14.52;9.30;;;11.00;67.50;;;;;;5076582;28;20051;-61
2021/04/20 01:58:08;;;;;;;15.80;9.68;;;11.00;67.60;;;;;;5064082;28;20093;-60
2021/04/20 02:00:34;;;;;;;15.15;8.93;;;11.00;67.60;;;;;;5057157;28;20078;-61
2021/04/20 02:02:59;;;;;;;13.05;9.88;;;11.00;67.70;;;;;;5052768;28;20526;-60
2021/04/20 02:05:24;;;;;;;13.55;9.95;;;11.00;67.80;;;;;;5068753;28;20028;-61
2021/04/20 02:07:50;;;;;;;14.57;10.32;;;10.90;67.70;;;;;;5068921;28;20040;-61
2021/04/20 02:10:15;;;;;;;11.23;8.45;;;10.90;67.80;;;;;;5075270;28;20091;-60
2021/04/20 02:12:42;;;;;;;13.68;9.27;;;10.90;67.80;;;;;;5080066;28;20371;-60
2021/04/20 02:15:10;;;;;;;11.98;8.93;;;10.90;67.70;;;;;;5075287;28;20563;-60
2021/04/20 02:17:36;;;;;;;14.10;9.15;;;10.90;67.90;;;;;;5063271;28;20086;-60
2021/04/20 02:20:08;;;;;;;12.85;9.30;;;10.90;67.80;;;;;;5072822;28;20036;-61
2021/04/20 02:22:45;;;;;;;12.15;9.55;;;10.90;67.80;;;;;;5065574;28;20094;-61
2021/04/20 02:25:12;;;;;;;19.13;9.27;;;10.80;67.70;;;;;;5063731;28;20468;-61
2021/04/20 02:27:38;;;;;;;13.80;9.23;;;10.90;67.90;;;;;;5065301;28;20028;-60
2021/04/20 02:30:04;;;;;;;13.98;9.52;;;10.80;68.00;;;;;;5055231;28;20093;-60
2021/04/20 02:32:30;;;;;;;13.40;9.10;;;10.80;67.80;;;;;;5067584;28;20073;-61
2021/04/20 02:34:59;;;;;;;14.63;9.40;;;10.80;67.90;;;;;;5045764;28;20067;-60
2021/04/20 02:37:25;;;;;;;14.25;9.00;;;10.80;67.90;;;;;;5070422;28;20025;-61
2021/04/20 02:39:50;;;;;;;14.70;9.55;;;10.70;68.00;;;;;;5063394;28;20027;-61
2021/04/20 02:42:16;;;;;;;12.65;8.75;;;10.70;68.00;;;;;;5068625;28;20020;-61
2021/04/20 02:44:41;;;;;;;16.00;9.85;;;10.70;68.10;;;;;;5069708;28;20024;-61
2021/04/20 02:47:07;;;;;;;14.18;9.43;;;10.70;68.10;;;;;;5058616;28;20118;-61
2021/04/20 02:49:33;;;;;;;14.25;9.45;;;10.70;68.00;;;;;;5081584;28;20082;-61
2021/04/20 02:51:59;;;;;;;14.23;8.77;;;10.70;68.00;;;;;;5081404;28;20035;-60
2021/04/20 02:54:24;;;;;;;12.13;8.68;;;10.70;67.90;;;;;;5043075;28;20024;-60
2021/04/20 02:56:50;;;;;;;13.13;9.20;;;10.70;68.00;;;;;;5077215;28;20526;-61
2021/04/20 02:59:15;;;;;;;11.27;8.77;;;10.70;68.00;;;;;;5071612;28;20037;-61
2021/04/20 03:01:41;;;;;;;11.93;8.25;;;10.70;68.20;;;;;;5069268;28;20063;-60
2021/04/20 03:04:07;;;;;;;11.32;8.73;;;10.70;68.10;;;;;;5050501;28;20035;-60
2021/04/20 03:06:33;;;;;;;11.82;8.20;;;10.60;68.20;;;;;;5054428;28;20032;-61
2021/04/20 03:08:58;;;;;;;12.68;10.80;;;10.60;68.00;;;;;;5064552;28;20047;-60
2021/04/20 03:11:29;;;;;;;15.15;11.30;;;10.60;68.10;;;;;;5072597;28;20047;-61
2021/04/20 03:13:57;;;;;;;15.23;11.07;;;10.60;68.30;;;;;;5073188;28;20024;-60
2021/04/20 03:16:23;;;;;;;14.07;10.48;;;10.60;68.40;;;;;;5062140;28;20086;-61
2021/04/20 03:18:48;;;;;;;46.65;13.40;;;10.60;68.20;;;;;;5049659;28;20068;-61
2021/04/20 03:21:15;;;;;;;50.03;13.02;;;10.60;68.30;;;;;;5075240;28;20099;-60
2021/04/20 03:23:41;;;;;;;48.33;13.23;;;10.60;68.60;;;;;;5031416;28;20364;-61
2021/04/20 03:26:25;;;;;;;40.22;13.30;;;10.60;68.60;;;;;;5064048;28;20040;-60
2021/04/20 03:28:56;;;;;;;37.85;11.90;;;10.60;68.70;;;;;;5064551;28;20024;-60
2021/04/20 03:31:22;;;;;;;47.58;13.38;;;10.50;68.50;;;;;;5034335;28;20040;-61
2021/04/20 03:33:53;;;;;;;121.57;17.23;;;10.50;68.60;;;;;;5071740;28;20033;-61
2021/04/20 03:36:27;;;;;;;86.25;15.00;;;10.50;68.70;;;;;;5062829;28;20028;-60
2021/04/20 03:39:06;;;;;;;52.50;12.57;;;10.60;68.70;;;;;;5063129;28;20049;-61
2021/04/20 03:41:42;;;;;;;41.60;12.43;;;10.50;68.70;;;;;;5041074;28;20357;-60
2021/04/20 03:44:08;;;;;;;46.72;13.45;;;10.50;68.80;;;;;;5068769;28;20036;-61
2021/04/20 03:46:37;;;;;;;41.35;11.98;;;10.50;69.10;;;;;;5035419;28;20053;-60
2021/04/20 03:49:22;;;;;;;27.17;11.13;;;10.50;69.20;;;;;;5049316;28;20471;-61
2021/04/20 03:51:49;;;;;;;28.95;12.23;;;10.50;69.60;;;;;;5061068;28;20047;-61
2021/04/20 03:54:14;;;;;;;35.83;12.32;;;10.50;69.20;;;;;;5070903;28;20085;-61
2021/04/20 03:56:43;;;;;;;37.25;10.45;;;10.50;69.20;;;;;;5032295;28;20013;-60
2021/04/20 03:59:08;;;;;;;42.63;12.65;;;10.50;69.30;;;;;;5063860;28;20036;-60
2021/04/20 04:01:45;;;;;;;41.13;11.20;;;10.50;69.50;;;;;;5063927;28;20063;-61
2021/04/20 04:04:13;;;;;;;37.00;11.07;;;10.50;69.80;;;;;;5060799;28;20392;-60
2021/04/20 04:06:39;;;;;;;38.63;11.30;;;10.40;69.70;;;;;;5048746;28;20016;-60
2021/04/20 04:09:05;;;;;;;40.03;11.77;;;10.40;69.90;;;;;;5066126;28;20036;-60
2021/04/20 04:11:32;;;;;;;39.20;11.05;;;10.40;69.90;;;;;;5072245;28;20029;-61
2021/04/20 04:13:58;;;;;;;38.15;11.75;;;10.40;69.80;;;;;;5053916;28;20048;-61
2021/04/20 04:16:23;;;;;;;52.05;11.77;;;10.40;69.70;;;;;;5068134;28;20064;-60
2021/04/20 04:18:51;;;;;;;29.70;10.85;;;10.60;69.90;;;;;;5053254;28;20048;-60
2021/04/20 04:21:18;;;;;;;36.45;10.95;;;10.40;69.80;;;;;;5036327;28;20053;-60
2021/04/20 04:23:46;;;;;;;26.77;11.68;;;10.40;69.80;;;;;;5067227;28;20115;-60
2021/04/20 04:26:16;;;;;;;41.40;10.63;;;10.40;69.70;;;;;;5071863;28;20025;-60
2021/04/20 04:28:44;;;;;;;26.65;11.48;;;10.40;69.80;;;;;;5068760;28;20029;-60
2021/04/20 04:31:09;;;;;;;33.42;11.00;;;10.30;69.80;;;;;;5045291;28;20036;-61
2021/04/20 04:33:36;;;;;;;31.35;11.30;;;10.30;69.90;;;;;;5067585;28;20081;-60
2021/04/20 04:36:02;;;;;;;39.13;10.73;;;10.40;69.90;;;;;;5054823;28;20029;-60
2021/04/20 04:38:29;;;;;;;28.10;10.40;;;10.40;70.00;;;;;;5036301;28;20040;-61
2021/04/20 04:40:59;;;;;;;33.22;11.55;;;10.30;70.00;;;;;;5068989;28;20020;-61
2021/04/20 04:43:25;;;;;;;23.33;11.20;;;10.30;69.80;;;;;;5051005;28;20090;-60
2021/04/20 04:45:57;;;;;;;40.67;11.38;;;10.30;70.00;;;;;;5049476;28;20503;-60
2021/04/20 04:48:23;;;;;;;24.63;10.20;;;10.30;70.00;;;;;;5016838;28;20083;-60
2021/04/20 04:50:48;;;;;;;27.33;10.45;;;10.30;70.10;;;;;;5033206;28;20023;-61
2021/04/20 04:53:14;;;;;;;27.73;9.75;;;10.20;70.10;;;;;;5015065;28;20033;-61
2021/04/20 04:55:39;;;;;;;37.28;10.48;;;10.20;70.20;;;;;;5029613;28;20032;-60
2021/04/20 04:58:06;;;;;;;22.10;9.50;;;10.20;70.10;;;;;;5020015;28;20095;-61
2021/04/20 05:00:31;;;;;;;29.55;11.68;;;10.20;69.90;;;;;;5013880;28;20017;-60
2021/04/20 05:02:58;;;;;;;31.23;10.30;;;10.20;69.80;;;;;;5028481;28;20472;-61
2021/04/20 05:05:24;;;;;;;28.73;9.85;;;10.20;69.90;;;;;;5030897;28;20033;-61
2021/04/20 05:07:50;;;;;;;30.75;9.82;;;10.20;69.80;;;;;;5027556;28;20456;-61
2021/04/20 05:10:15;;;;;;;27.30;10.45;;;10.20;70.10;;;;;;5034252;28;20123;-61
2021/04/20 05:12:41;;;;;;;24.90;9.85;;;10.20;69.80;;;;;;5006013;28;20091;-60
2021/04/20 05:15:15;;;;;;;32.50;10.77;;;10.20;70.00;;;;;;5013708;28;20021;-60
2021/04/20 05:17:42;;;;;;;29.70;12.40;;;10.20;70.00;;;;;;5005217;28;20014;-60
2021/04/20 05:20:12;;;;;;;25.33;9.38;;;10.20;70.00;;;;;;5010423;28;20030;-60
2021/04/20 05:22:38;;;;;;;27.40;10.50;;;10.20;70.00;;;;;;5000753;28;20030;-61
2021/04/20 05:25:11;;;;;;;32.25;9.95;;;10.20;70.00;;;;;;4998625;28;20038;-60
2021/04/20 05:27:36;;;;;;;31.77;9.98;;;10.20;69.70;;;;;;5013880;28;20055;-61
2021/04/20 05:30:06;;;;;;;28.73;10.43;;;10.20;69.80;;;;;;5011583;28;20473;-60
2021/04/20 05:32:32;;;;;;;32.50;10.55;;;10.20;69.80;;;;;;5011308;28;20483;-61
2021/04/20 05:35:01;;;;;;;36.80;10.73;;;10.20;70.00;;;;;;5027614;28;20061;-60
2021/04/20 05:37:35;;;;;;;25.95;9.60;;;10.20;69.90;;;;;;5015903;28;20538;-60
2021/04/20 05:40:14;;;;;;;37.40;9.48;;;10.20;69.90;;;;;;5015553;28;20090;-61
2021/04/20 05:42:40;;;;;;;28.67;10.52;;;10.20;70.00;;;;;;5016810;28;20400;-61
2021/04/20 05:45:06;;;;;;;26.35;9.35;;;10.20;70.00;;;;;;4999146;28;20219;-61
2021/04/20 05:47:32;;;;;;;33.78;9.73;;;10.20;69.90;;;;;;5028932;28;20041;-61
2021/04/20 05:49:58;;;;;;;26.30;9.60;;;10.20;69.90;;;;;;5014137;28;20642;-60
2021/04/20 05:52:24;;;;;;;23.95;10.18;;;10.20;69.90;;;;;;5005679;28;20475;-60
2021/04/20 05:54:53;;;;;;;22.95;9.35;;;10.20;69.90;;;;;;4999301;28;20465;-61
2021/04/20 05:57:18;;;;;;;25.90;9.20;;;10.20;69.90;;;;;;5016019;28;20124;-60
2021/04/20 05:59:45;;;;;;;18.92;9.02;;;10.20;70.00;;;;;;5033044;28;20136;-61
2021/04/20 06:02:12;;;;;;;24.48;10.15;;;10.20;70.00;;;;;;5006132;28;20037;-61
2021/04/20 06:04:38;;;;;;;21.58;8.93;;;10.20;70.00;;;;;;5005663;28;20159;-62
2021/04/20 06:07:03;;;;;;;18.48;8.88;;;10.20;70.00;;;;;;5009254;28;20129;-60
2021/04/20 06:09:29;;;;;;;25.77;10.10;;;10.20;70.10;;;;;;5010813;28;20067;-60
2021/04/20 06:11:54;;;;;;;23.95;10.35;;;10.10;70.00;;;;;;5038013;28;20060;-60
2021/04/20 06:14:20;;;;;;;22.10;9.05;;;10.10;70.00;;;;;;5003377;28;20108;-60
2021/04/20 06:16:45;;;;;;;26.80;9.82;;;10.10;70.10;;;;;;5003818;28;20039;-60
2021/04/20 06:19:11;;;;;;;21.00;9.20;;;10.10;70.00;;;;;;5002380;28;20468;-61
2021/04/20 06:21:36;;;;;;;16.27;8.80;;;10.20;70.00;;;;;;5012905;28;20034;-60
2021/04/20 06:24:06;;;;;;;17.42;8.82;;;10.20;70.00;;;;;;5034942;28;20033;-60
2021/04/20 06:26:34;;;;;;;19.92;8.52;;;10.20;70.00;;;;;;5002182;28;20062;-60
2021/04/20 06:29:01;;;;;;;25.65;9.50;;;10.20;70.00;;;;;;4994372;28;20045;-60
2021/04/20 06:31:26;;;;;;;23.77;9.15;;;10.20;70.10;;;;;;5015485;28;20036;-60
2021/04/20 06:33:52;;;;;;;23.15;10.50;;;10.20;70.10;;;;;;5003577;28;20032;-60
2021/04/20 06:36:17;;;;;;;26.30;9.93;;;10.10;70.20;;;;;;5007040;28;20559;-60
2021/04/20 06:38:43;;;;;;;23.60;9.10;;;10.10;70.30;;;;;;5003263;28;20331;-60
2021/04/20 06:41:09;;;;;;;24.10;8.90;;;10.20;70.30;;;;;;5014579;28;20036;-61
2021/04/20 06:43:52;;;;;;;26.55;9.02;;;10.10;70.20;;;;;;5002044;28;20419;-60
2021/04/20 06:46:20;;;;;;;29.98;10.02;;;10.20;70.20;;;;;;5025199;28;20155;-61
2021/04/20 06:49:00;;;;;;;30.75;9.93;;;10.20;70.20;;;;;;5038121;28;20028;-61
2021/04/20 06:51:34;;;;;;;34.00;10.23;;;10.20;70.10;;;;;;5038236;28;20086;-60
2021/04/20 06:54:22;;;;;;;34.00;10.52;;;10.20;70.10;;;;;;5039112;28;20021;-60
2021/04/20 06:56:57;;;;;;;33.65;10.88;;;10.20;70.10;;;;;;5051721;28;20033;-61
2021/04/20 06:59:43;;;;;;;32.83;10.03;;;10.20;70.10;;;;;;5050737;28;20021;-60
2021/04/20 07:02:39;;;;;;;32.95;9.50;;;10.20;70.20;;;;;;5050306;28;20033;-60
2021/04/20 07:05:07;;;;;;;30.95;11.13;;;10.20;70.30;;;;;;5045150;28;20066;-60
2021/04/20 07:07:52;;;;;;;36.83;11.23;;;10.20;70.30;;;;;;5040913;28;20017;-60
2021/04/20 07:10:38;;;;;;;29.13;10.65;;;10.20;70.40;;;;;;5047570;28;20094;-61
2021/04/20 07:13:05;;;;;;;;;;;10.20;70.60;;;;;;5048631;28;20526;-61
2021/04/20 07:15:31;;;;;;;35.47;11.23;;;10.20;70.70;;;;;;5056206;28;19970;-60
2021/04/20 07:18:06;;;;;;;46.40;12.30;;;10.20;70.80;;;;;;5038013;28;20025;-60
2021/04/20 07:20:51;;;;;;;30.73;10.48;;;10.20;71.60;;;;;;5052834;28;20047;-60
2021/04/20 07:23:35;;;;;;;39.05;10.65;;;10.20;71.00;;;;;;5049166;28;20418;-61
2021/04/20 07:26:25;;;;;;;39.33;10.50;;;10.30;71.10;;;;;;5044503;28;20506;-61
2021/04/20 07:29:15;;;;;;;52.05;12.38;;;10.60;71.50;;;;;;5052192;28;20448;-60
2021/04/20 07:32:05;;;;;;;44.15;11.95;;;10.30;71.60;;;;;;5053866;28;20094;-61
2021/04/20 07:35:15;;;;;;;42.90;11.85;;;10.30;71.50;;;;;;5039620;28;20041;-60
2021/04/20 07:37:45;;;;;;;51.10;13.10;;;10.30;71.50;;;;;;5018036;28;20496;-60
2021/04/20 07:40:46;;;;;;;61.55;13.15;;;10.40;71.60;;;;;;5031426;28;20032;-60
2021/04/20 07:43:41;;;;;;;39.60;12.13;;;10.50;72.40;;;;;;5046155;28;20060;-60
2021/04/20 07:46:12;;;;;;;50.85;12.45;;;10.30;72.20;;;;;;4980062;28;20683;-60
2021/04/20 07:48:43;;;;;;;50.28;12.90;;;10.30;72.30;;;;;;5056176;28;20044;-61
2021/04/20 07:51:30;;;;;;;70.50;13.98;;;10.30;72.20;;;;;;5049328;28;20060;-60
2021/04/20 07:54:04;;;;;;;50.10;13.07;;;10.40;73.10;;;;;;5038584;28;20029;-60
2021/04/20 07:56:59;;;;;;;77.30;13.85;;;10.40;73.20;;;;;;5048632;28;20170;-61
2021/04/20 08:00:06;;;;;;;65.82;13.77;;;10.40;73.30;;;;;;4980499;28;20103;-61
2021/04/20 08:02:52;;;;;;;50.92;14.18;;;10.40;73.00;;;;;;5010850;28;20527;-60
2021/04/20 08:05:29;;;;;;;44.15;13.65;;;10.40;72.90;;;;;;5011703;28;20716;-60
2021/04/20 08:07:54;;;;;;;79.68;14.82;;;10.40;72.60;;;;;;5012710;28;20980;-60
2021/04/20 08:10:41;;;;;;;61.35;14.75;;;10.40;72.60;;;;;;5012027;28;20116;-60
2021/04/20 08:13:30;;;;;;;58.55;13.52;;;10.50;72.70;;;;;;5006417;28;21867;-60
2021/04/20 08:15:57;;;;;;;64.35;14.55;;;10.50;72.80;;;;;;5009315;28;20026;-61
2021/04/20 08:18:29;;;;;;;63.38;14.00;;;10.50;72.50;;;;;;4995602;28;20034;-60
2021/04/20 08:20:54;;;;;;;58.78;16.05;;;10.50;72.30;;;;;;4997774;28;20030;-60
2021/04/20 08:23:20;;;;;;;52.78;14.45;;;10.50;73.10;;;;;;5009818;28;20472;-60
2021/04/20 08:25:59;;;;;;;82.30;19.10;;;10.60;73.10;;;;;;4995014;28;20069;-60
2021/04/20 08:28:35;;;;;;;72.53;16.80;;;10.50;73.00;;;;;;4999456;28;20414;-60
2021/04/20 08:31:18;;;;;;;69.78;15.38;;;10.50;73.00;;;;;;5006391;28;20053;-60
2021/04/20 08:33:45;;;;;;;58.88;14.25;;;10.60;73.20;;;;;;5012198;28;20037;-60
2021/04/20 08:36:23;;;;;;;55.00;14.10;;;10.60;73.20;;;;;;4990678;28;21309;-60
2021/04/20 08:38:58;;;;;;;55.33;13.23;;;10.60;73.70;;;;;;5007228;28;20075;-60
2021/04/20 08:41:37;;;;;;;58.33;13.43;;;10.60;73.10;;;;;;4996503;28;20599;-60
2021/04/20 08:44:30;;;;;;;56.22;13.45;;;10.60;73.00;;;;;;5007289;28;20022;-61
2021/04/20 08:47:28;;;;;;;64.20;13.45;;;10.60;73.10;;;;;;4991682;28;20060;-60
2021/04/20 08:49:56;;;;;;;63.90;14.13;;;10.70;73.10;;;;;;5006842;28;20041;-61
2021/04/20 08:52:40;;;;;;;64.35;13.70;;;10.70;72.90;;;;;;5008837;28;20025;-61
2021/04/20 08:55:33;;;;;;;72.22;13.98;;;10.70;73.00;;;;;;5011767;28;20807;-60
2021/04/20 08:58:18;;;;;;;53.33;14.18;;;10.70;73.00;;;;;;5011560;28;20045;-60
2021/04/20 09:01:20;;;;;;;53.90;14.90;;;10.70;73.10;;;;;;5007581;28;20033;-60
2021/04/20 09:04:10;;;;;;;48.13;13.63;;;10.80;72.90;;;;;;5010449;28;20029;-61
2021/04/20 09:06:49;;;;;;;59.35;13.35;;;10.80;73.00;;;;;;5010674;28;20120;-60
2021/04/20 09:09:16;;;;;;;71.88;13.07;;;10.80;72.80;;;;;;5010051;28;20052;-60
2021/04/20 09:11:54;;;;;;;82.95;15.73;;;10.90;72.90;;;;;;5012413;28;20057;-60
2021/04/20 09:14:39;;;;;;;60.08;14.85;;;10.90;73.00;;;;;;4999952;28;20037;-61
2021/04/20 09:17:13;;;;;;;75.13;16.23;;;10.90;73.00;;;;;;4993741;28;20053;-61
2021/04/20 09:19:55;;;;;;;53.03;14.27;;;11.00;73.10;;;;;;4977591;28;20065;-60
2021/04/20 09:22:26;;;;;;;51.38;12.95;;;11.00;73.10;;;;;;5010137;28;20112;-60
2021/04/20 09:25:05;;;;;;;59.50;15.95;;;11.00;73.00;;;;;;4992953;28;20680;-60
2021/04/20 09:27:31;;;;;;;64.40;15.25;;;11.00;73.80;;;;;;5008007;28;20366;-61
2021/04/20 09:29:59;;;;;;;55.58;13.32;;;11.00;72.90;;;;;;5006191;28;20036;-60
2021/04/20 09:32:35;;;;;;;67.10;14.43;;;11.00;72.90;;;;;;5011843;28;20389;-60
2021/04/20 09:35:02;;;;;;;59.78;13.90;;;11.10;73.70;;;;;;5011059;28;20068;-61
2021/04/20 09:37:28;;;;;;;80.75;16.95;;;11.10;72.90;;;;;;4994587;28;20033;-61
2021/04/20 09:39:54;;;;;;;73.38;17.23;;;11.10;72.80;;;;;;4996760;28;20101;-60
2021/04/20 09:42:20;;;;;;;81.25;15.68;;;11.20;72.90;;;;;;4998635;28;20495;-61
2021/04/20 09:45:19;;;;;;;44.20;13.57;;;11.20;72.80;;;;;;4997511;28;20052;-60
2021/04/20 09:47:59;;;;;;;70.75;14.02;;;11.20;72.70;;;;;;4995842;28;20038;-60
2021/04/20 09:51:01;;;;;;;101.72;17.67;;;11.30;72.70;;;;;;4995323;28;20038;-61
2021/04/20 09:53:32;;;;;;;90.85;15.25;;;11.30;72.30;;;;;;4994015;28;20030;-61
2021/04/20 09:56:26;;;;;;;72.80;14.90;;;11.30;72.50;;;;;;4987342;28;20023;-60
2021/04/20 09:58:51;;;;;;;70.82;14.70;;;11.30;72.40;;;;;;4995344;28;20038;-60
2021/04/20 10:01:54;;;;;;;73.55;13.77;;;11.40;72.40;;;;;;4997676;28;20072;-61
2021/04/20 10:04:32;;;;;;;79.97;15.52;;;11.40;72.20;;;;;;4994070;28;20081;-61
2021/04/20 10:07:12;;;;;;;95.95;16.42;;;11.50;71.90;;;;;;4995762;28;20288;-61
2021/04/20 10:09:52;;;;;;;70.72;13.57;;;11.50;71.80;;;;;;4997250;28;20025;-60
2021/04/20 10:12:25;;;;;;;66.20;15.13;;;11.50;71.80;;;;;;4988986;28;20371;-61
2021/04/20 10:15:02;;;;;;;69.00;15.80;;;11.50;71.70;;;;;;4992185;28;20040;-61
2021/04/20 10:17:37;;;;;;;82.47;13.85;;;11.60;71.90;;;;;;4992265;28;20036;-60
2021/04/20 10:20:14;;;;;;;93.78;17.63;;;11.60;71.90;;;;;;4979431;28;20437;-60
2021/04/20 10:23:08;;;;;;;76.30;14.77;;;11.70;71.90;;;;;;4996245;28;20664;-60
2021/04/20 10:25:48;;;;;;;62.40;13.68;;;11.80;71.90;;;;;;4977600;28;20030;-61
2021/04/20 10:28:31;;;;;;;71.82;13.93;;;11.80;71.70;;;;;;4979522;28;20038;-60
2021/04/20 10:30:59;;;;;;;78.13;14.65;;;11.80;71.70;;;;;;4979647;28;20097;-61
2021/04/20 10:33:25;;;;;;;76.72;13.88;;;11.90;71.50;;;;;;4978237;28;20374;-60
2021/04/20 10:35:56;;;;;;;60.30;13.57;;;11.90;71.70;;;;;;4988638;28;20032;-60
2021/04/20 10:38:23;;;;;;;73.93;15.20;;;11.90;71.30;;;;;;4975646;28;20132;-61
2021/04/20 10:40:53;;;;;;;70.60;15.05;;;12.10;71.10;;;;;;4976900;28;20164;-60
2021/04/20 10:43:19;;;;;;;52.05;12.68;;;12.00;70.40;;;;;;4995967;28;20456;-61
2021/04/20 10:45:44;;;;;;;51.17;13.52;;;12.10;69.20;;;;;;4997148;28;20030;-61
2021/04/20 10:48:15;;;;;;;51.20;12.98;;;12.20;68.50;;;;;;5012252;28;20040;-60
2021/04/20 10:50:41;;;;;;;51.70;13.25;;;12.20;68.70;;;;;;5004104;28;20044;-61
2021/04/20 10:53:09;;;;;;;65.07;13.15;;;12.30;68.00;;;;;;5032567;28;20393;-60
2021/04/20 10:55:36;;;;;;;26.30;10.70;;;12.40;67.80;;;;;;5007424;28;20018;-61
2021/04/20 10:58:04;;;;;;;78.18;14.68;;;12.40;67.30;;;;;;5019807;28;20060;-61
2021/04/20 11:00:32;;;;;;;47.72;12.40;;;12.40;67.40;;;;;;5019783;28;20167;-61
2021/04/20 11:02:57;;;;;;;34.15;12.18;;;12.50;67.30;;;;;;5009255;28;20021;-60
2021/04/20 11:05:23;;;;;;;45.58;12.30;;;12.60;66.90;;;;;;5002640;28;20060;-61
2021/04/20 11:07:53;;;;;;;55.85;12.85;;;12.60;66.00;;;;;;4998931;28;20037;-61
2021/04/20 11:10:19;;;;;;;43.20;11.95;;;12.70;66.10;;;;;;5016264;28;20067;-61
2021/04/20 11:12:46;;;;;;;42.65;12.00;;;12.70;65.70;;;;;;5002716;28;20447;-61
2021/04/20 11:15:31;;;;;;;60.95;12.07;;;12.70;65.40;;;;;;5017313;28;20060;-61
2021/04/20 11:18:00;;;;;;;51.60;13.35;;;12.80;65.50;;;;;;5032921;28;20041;-61
2021/04/20 11:20:42;;;;;;;46.20;11.98;;;12.90;65.90;;;;;;5000903;28;20109;-62
2021/04/20 11:23:08;;;;;;;49.28;11.40;;;13.00;65.00;;;;;;5013442;28;20025;-62
2021/04/20 11:25:35;;;;;;;50.72;11.45;;;13.10;64.60;;;;;;5035557;28;20107;-62
2021/04/20 11:28:03;;;;;;;48.20;11.68;;;13.10;64.30;;;;;;5019447;28;20432;-61
2021/04/20 11:30:33;;;;;;;55.70;13.07;;;13.20;64.60;;;;;;4990092;28;20076;-61
2021/04/20 11:33:01;;;;;;;47.65;11.73;;;13.20;64.40;;;;;;5007301;28;20147;-61
2021/04/20 11:35:26;;;;;;;27.67;9.15;;;13.30;63.30;;;;;;5016455;28;20108;-61
2021/04/20 11:38:00;;;;;;;28.05;9.07;;;13.40;62.20;;;;;;5002452;28;20047;-62
2021/04/20 11:40:30;;;;;;;42.60;11.23;;;13.50;62.10;;;;;;5019792;28;20036;-61
2021/04/20 11:42:55;;;;;;;47.00;11.13;;;13.50;62.30;;;;;;5021688;28;20055;-62
2021/04/20 11:45:22;;;;;;;34.83;10.30;;;13.70;62.30;;;;;;5008047;28;20033;-61
2021/04/20 11:47:59;;;;;;;33.97;10.52;;;13.70;61.60;;;;;;5006730;28;20049;-62
2021/04/20 11:50:27;;;;;;;32.85;10.45;;;13.80;61.40;;;;;;5023995;28;20037;-61
2021/04/20 11:52:58;;;;;;;26.50;9.68;;;13.90;61.10;;;;;;5019791;28;20041;-61
2021/04/20 11:55:31;;;;;;;21.60;9.05;;;14.00;60.40;;;;;;5004148;28;20037;-61
2021/04/20 11:58:08;;;;;;;43.33;9.48;;;14.00;60.00;;;;;;5004292;28;20029;-62
2021/04/20 12:00:34;;;;;;;17.90;8.52;;;14.10;59.80;;;;;;5014838;28;20032;-62
2021/04/20 12:03:08;;;;;;;27.05;9.25;;;14.20;59.40;;;;;;5020799;28;20021;-61
2021/04/20 12:05:33;;;;;;;44.55;9.23;;;14.20;59.30;;;;;;5003956;28;20041;-61
2021/04/20 12:07:59;;;;;;;35.50;9.95;;;14.20;59.40;;;;;;4999777;28;20068;-61
2021/04/20 12:10:24;;;;;;;34.15;8.82;;;14.30;59.50;;;;;;5002061;28;20498;-62
2021/04/20 12:12:51;;;;;;;41.50;9.32;;;14.40;59.60;;;;;;5002356;28;20060;-63
2021/04/20 12:15:17;;;;;;;28.75;8.38;;;14.50;59.40;;;;;;5003963;28;20063;-62
2021/04/20 12:17:44;;;;;;;30.80;8.57;;;14.60;58.80;;;;;;5035993;28;20032;-61
2021/04/20 12:20:13;;;;;;;35.05;7.80;;;14.60;58.70;;;;;;5019321;28;20025;-62
2021/04/20 12:22:39;;;;;;;29.42;7.93;;;14.70;58.80;;;;;;5017249;28;20727;-61
2021/04/20 12:25:06;;;;;;;24.00;8.18;;;14.70;58.20;;;;;;5000789;28;20064;-62
2021/04/20 12:27:31;;;;;;;17.45;7.18;;;14.80;57.60;;;;;;5003356;28;20029;-61
2021/04/20 12:29:58;;;;;;;28.90;6.75;;;14.80;57.10;;;;;;5002082;28;20088;-61
2021/04/20 12:32:24;;;;;;;14.85;6.47;;;14.90;56.90;;;;;;5002135;28;20025;-61
2021/04/20 12:34:59;;;;;;;22.95;8.98;;;15.00;56.60;;;;;;5010273;28;20032;-62
2021/04/20 12:37:26;;;;;;;26.30;7.30;;;15.10;56.60;;;;;;5003244;28;20032;-62
2021/04/20 12:40:07;;;;;;;33.08;7.18;;;15.20;56.50;;;;;;5015701;28;20037;-62
2021/04/20 12:42:39;;;;;;;22.08;8.18;;;15.30;56.20;;;;;;5008355;28;20121;-62
2021/04/20 12:45:11;;;;;;;34.95;7.93;;;15.30;56.00;;;;;;5007974;28;20787;-62
2021/04/20 12:47:37;;;;;;;17.98;7.32;;;15.40;56.20;;;;;;5006084;28;20413;-62
2021/04/20 12:50:03;;;;;;;27.92;7.20;;;15.50;55.50;;;;;;5001461;28;20432;-61